Andalusia, Alabama
Current Conditions -  °F | °C
As of 4:56 AM on Friday 28 Nov 2014 (Local Time) from K79J Reporting Station
Clear Clear  
Wind Chill: 35°   Ceiling: Unl
Heat Index: 35°   Visibility: 10mi
Dew Point: 29°   Wind: 0mph
Humidity: 78%   Direction: NA
Pressure: 30.4"   Gusts: NA
Location:  31.32°N, 86.49°W
Report Text: K79J 281056Z AUTO 00000KT 10SM CLR 02/M02 A3040 RMK AO2 SLP296 T00171017 FZRANO
Loading
Personal Weather Stations






























Interactive Weather Map New forecast layout! Learn more

10-Day Weather Forecast

Advertisements
Track Severe Weather on mobile